Terminal Aerodrome Forecast
Issued by NWS Tuscon, AZ

Home | Current Version | Previous Version | Text Only | Print | Product List | Glossary On
Versions: 1 2 3 4 5 6 7 8 9 10 11 12 13 14 15 16
000
FTUS45 KTWC 270520
TAFDUG
TAF
KDUG 270520Z 2706/2806 35008KT P6SM SCT100
     FM271000 VRB03KT P6SM SKC
     FM271800 36007KT P6SM SKC
     FM280100 07008KT P6SM SKC=

USA.gov is the U.S. government's official web portal to all federal, state and local government web resources and services.